createdAt,value
2023-04-21T00:00:10.418Z,91.84
2023-04-21T00:01:14.385Z,91.92
2023-04-21T00:02:21.529Z,91.34
2023-04-21T00:03:28.608Z,91.04
2023-04-21T00:04:34.154Z,91.18
2023-04-21T00:05:40.440Z,91.43
2023-04-21T00:06:45.827Z,91.24
2023-04-21T00:07:48.661Z,90.53
2023-04-21T00:08:51.532Z,91.12
2023-04-21T00:09:55.754Z,91.22
2023-04-21T00:10:58.333Z,90.61
2023-04-21T00:12:02.155Z,90.13
2023-04-21T00:13:05.653Z,90.94
2023-04-21T00:14:08.876Z,91.33
2023-04-21T00:15:14.125Z,91.44
2023-04-21T00:16:17.791Z,91.35
2023-04-21T00:17:21.347Z,91.58
2023-04-21T00:18:28.181Z,91.52
2023-04-21T00:19:32.136Z,91.26
2023-04-21T00:20:36.134Z,91.45
2023-04-21T00:21:39.440Z,91.34
2023-04-21T00:22:42.696Z,91.29
2023-04-21T00:23:46.968Z,90.73
2023-04-21T00:24:50.165Z,90.86
2023-04-21T00:25:55.222Z,91.15
2023-04-21T00:26:59.782Z,91.10
2023-04-21T00:28:04.122Z,91.03
2023-04-21T00:29:07.947Z,91.34
2023-04-21T00:30:13.905Z,91.01
2023-04-21T00:31:16.130Z,90.99
2023-04-21T00:32:18.568Z,91.30
2023-04-21T00:33:22.486Z,91.75
2023-04-21T00:34:29.220Z,92.12
2023-04-21T00:35:32.944Z,91.78
2023-04-21T00:36:38.117Z,92.04
2023-04-21T00:37:42.142Z,92.28
2023-04-21T00:38:48.737Z,92.52
2023-04-21T00:39:52.787Z,93.02
2023-04-21T00:40:56.212Z,92.81
2023-04-21T00:41:58.455Z,92.66
2023-04-21T00:43:01.969Z,93.00
2023-04-21T00:44:07.249Z,93.02
2023-04-21T00:45:12.643Z,93.34
2023-04-21T00:46:18.876Z,92.70
2023-04-21T00:47:22.113Z,92.51
2023-04-21T00:48:26.716Z,92.59
2023-04-21T00:49:29.057Z,92.46
2023-04-21T00:50:33.024Z,92.92
2023-04-21T00:51:37.236Z,92.85
2023-04-21T00:52:41.875Z,93.03
2023-04-21T00:53:44.747Z,92.82
2023-04-21T00:54:48.048Z,93.20
2023-04-21T00:55:52.999Z,92.96
2023-04-21T00:56:58.153Z,93.18
2023-04-21T00:58:02.523Z,94.01
2023-04-21T00:59:04.778Z,93.41
2023-04-21T01:00:09.849Z,93.92
2023-04-21T01:01:13.621Z,93.23
2023-04-21T01:02:23.867Z,92.77
2023-04-21T01:03:27.992Z,93.14
2023-04-21T01:04:37.684Z,93.61
2023-04-21T01:05:43.314Z,93.09
2023-04-21T01:06:48.521Z,92.79
2023-04-21T01:07:52.160Z,93.45
2023-04-21T01:08:56.900Z,92.98
2023-04-21T01:10:01.560Z,92.87
2023-04-21T01:11:12.914Z,92.87
2023-04-21T01:12:16.608Z,92.73
2023-04-21T01:13:24.277Z,92.62
2023-04-21T01:14:28.740Z,93.32
2023-04-21T01:15:33.075Z,93.17
2023-04-21T01:16:36.441Z,93.54
2023-04-21T01:17:42.958Z,93.96
2023-04-21T01:18:50.483Z,94.20
2023-04-21T01:19:55.354Z,94.12
2023-04-21T01:21:00.629Z,93.73
2023-04-21T01:22:03.808Z,94.02
2023-04-21T01:23:09.715Z,93.48
2023-04-21T01:24:14.888Z,93.49
2023-04-21T01:25:22.980Z,93.46
2023-04-21T01:26:26.718Z,93.75
2023-04-21T01:27:32.329Z,94.19
2023-04-21T01:28:36.918Z,93.97
2023-04-21T01:29:41.190Z,94.35
2023-04-21T01:30:45.634Z,94.08
2023-04-21T01:31:49.004Z,94.47
2023-04-21T01:32:52.297Z,94.58
2023-04-21T01:33:55.634Z,94.80
2023-04-21T01:35:00.058Z,94.78
2023-04-21T01:36:03.797Z,94.11
2023-04-21T01:37:11.265Z,94.48
2023-04-21T01:38:19.263Z,94.62
2023-04-21T01:39:20.986Z,94.74
2023-04-21T01:40:24.387Z,94.81
2023-04-21T01:41:28.316Z,95.27
2023-04-21T01:42:32.769Z,95.27
2023-04-21T01:43:36.470Z,95.21
2023-04-21T01:44:39.883Z,93.99
2023-04-21T01:45:43.306Z,94.51
2023-04-21T01:46:46.997Z,94.53
2023-04-21T01:47:49.884Z,93.94
2023-04-21T01:48:52.347Z,93.74
2023-04-21T01:49:56.813Z,94.35
2023-04-21T01:50:59.678Z,94.21
2023-04-21T01:52:02.740Z,93.86
2023-04-21T01:53:08.224Z,94.27
2023-04-21T01:54:12.461Z,93.85
2023-04-21T01:55:16.195Z,94.91
2023-04-21T01:56:19.717Z,94.80
2023-04-21T01:57:23.080Z,94.31
2023-04-21T01:58:27.598Z,94.56
2023-04-21T01:59:31.144Z,94.31
2023-04-21T02:00:36.238Z,93.87
2023-04-21T02:01:41.205Z,92.78
2023-04-21T02:02:44.963Z,92.66
2023-04-21T02:03:50.153Z,92.46
2023-04-21T02:04:53.467Z,92.50
2023-04-21T02:05:57.919Z,92.63
2023-04-21T02:07:00.275Z,92.17
2023-04-21T02:08:06.417Z,92.02
2023-04-21T02:09:10.648Z,91.71
2023-04-21T02:10:14.330Z,90.65
2023-04-21T02:11:19.847Z,91.51
2023-04-21T02:12:23.125Z,92.08
2023-04-21T02:13:26.277Z,90.71
2023-04-21T02:14:29.785Z,90.71
2023-04-21T02:15:34.221Z,90.21
2023-04-21T02:16:38.009Z,89.65
2023-04-21T02:17:43.265Z,90.19
2023-04-21T02:18:47.632Z,89.69
2023-04-21T02:19:49.963Z,89.82
2023-04-21T02:20:54.392Z,89.96
2023-04-21T02:21:57.690Z,89.48
2023-04-21T02:23:02.394Z,89.77
2023-04-21T02:24:06.063Z,89.95
2023-04-21T02:25:09.567Z,89.62
2023-04-21T02:26:12.645Z,89.75
2023-04-21T02:27:16.477Z,88.70
2023-04-21T02:28:19.876Z,89.08
2023-04-21T02:29:24.520Z,89.28
2023-04-21T02:30:27.297Z,89.27
2023-04-21T02:31:33.429Z,88.94
2023-04-21T02:32:37.308Z,89.50
2023-04-21T02:33:40.021Z,89.29
2023-04-21T02:34:43.828Z,88.99
2023-04-21T02:35:47.428Z,88.46
2023-04-21T02:36:51.626Z,88.62
2023-04-21T02:37:58.733Z,88.48
2023-04-21T02:39:02.029Z,88.43
2023-04-21T02:40:10.343Z,88.21
2023-04-21T02:41:14.675Z,88.72
2023-04-21T02:42:17.373Z,88.29
2023-04-21T02:43:19.747Z,88.71
2023-04-21T02:44:24.913Z,88.14
2023-04-21T02:45:31.317Z,87.78
2023-04-21T02:46:34.640Z,87.33
2023-04-21T02:47:38.183Z,89.13
2023-04-21T02:48:41.577Z,88.42
2023-04-21T02:49:47.942Z,88.13
2023-04-21T02:50:54.470Z,88.32
2023-04-21T02:51:59.037Z,88.19
2023-04-21T02:53:03.348Z,88.21
2023-04-21T02:54:08.562Z,88.26
2023-04-21T02:55:12.048Z,87.57
2023-04-21T02:56:15.433Z,87.75
2023-04-21T02:57:17.801Z,88.19
2023-04-21T02:58:21.100Z,88.06
2023-04-21T02:59:24.384Z,88.36
2023-04-21T03:00:27.607Z,89.42
2023-04-21T03:01:31.816Z,89.77
2023-04-21T03:02:37.029Z,90.05
2023-04-21T03:03:43.690Z,90.45
2023-04-21T03:04:47.766Z,89.61
2023-04-21T03:05:52.724Z,89.97
2023-04-21T03:06:56.136Z,89.15
2023-04-21T03:07:59.425Z,89.00
2023-04-21T03:09:02.833Z,89.26
2023-04-21T03:10:07.087Z,88.90
2023-04-21T03:11:10.572Z,88.99
2023-04-21T03:12:13.869Z,89.31
2023-04-21T03:13:17.896Z,90.32
2023-04-21T03:14:20.252Z,90.19
2023-04-21T03:15:28.406Z,90.13
2023-04-21T03:16:31.648Z,90.25
2023-04-21T03:17:37.687Z,90.48
2023-04-21T03:18:40.971Z,90.01
2023-04-21T03:19:44.879Z,90.16
2023-04-21T03:20:49.969Z,89.70
2023-04-21T03:21:52.505Z,90.02
2023-04-21T03:22:56.237Z,90.32
2023-04-21T03:23:59.639Z,89.77
2023-04-21T03:25:02.834Z,89.51
2023-04-21T03:26:07.685Z,89.56
2023-04-21T03:27:15.356Z,90.02
2023-04-21T03:28:18.872Z,90.31
2023-04-21T03:29:28.482Z,90.21
2023-04-21T03:30:32.679Z,90.52
2023-04-21T03:31:36.026Z,90.25
2023-04-21T03:32:42.132Z,90.24
2023-04-21T03:33:47.894Z,90.75
2023-04-21T03:34:52.538Z,91.13
2023-04-21T03:35:56.256Z,90.28
2023-04-21T03:36:59.893Z,90.58
2023-04-21T03:38:04.458Z,90.75
2023-04-21T03:39:19.057Z,90.63
2023-04-21T03:40:14.279Z,91.09
2023-04-21T03:41:17.540Z,90.12
2023-04-21T03:42:22.100Z,90.89
2023-04-21T03:43:26.827Z,90.85
2023-04-21T03:44:30.342Z,90.93
2023-04-21T03:45:35.695Z,91.27
2023-04-21T03:46:41.023Z,90.93
2023-04-21T03:47:44.447Z,90.89
2023-04-21T03:48:48.065Z,91.97
2023-04-21T03:49:51.313Z,92.01
2023-04-21T03:50:53.880Z,91.94
2023-04-21T03:52:00.093Z,92.97
2023-04-21T03:53:03.613Z,92.99
2023-04-21T03:54:06.186Z,92.71
2023-04-21T03:55:10.835Z,92.95
2023-04-21T03:56:14.223Z,92.17
2023-04-21T03:57:17.520Z,92.80
2023-04-21T03:58:21.630Z,92.50
2023-04-21T03:59:25.167Z,92.49
2023-04-21T04:00:29.324Z,92.81
2023-04-21T04:01:38.613Z,91.85
2023-04-21T04:02:41.948Z,92.00
2023-04-21T04:03:45.768Z,91.41
2023-04-21T04:04:48.915Z,91.17
2023-04-21T04:05:51.423Z,90.66
2023-04-21T04:06:54.838Z,92.33
2023-04-21T04:07:58.034Z,91.31
2023-04-21T04:09:03.460Z,90.34
2023-04-21T04:10:07.099Z,89.81
2023-04-21T04:11:12.609Z,89.73
2023-04-21T04:12:17.773Z,89.51
2023-04-21T04:13:22.968Z,89.61
2023-04-21T04:14:26.903Z,89.06
2023-04-21T04:15:31.425Z,87.78
2023-04-21T04:16:36.471Z,87.27
2023-04-21T04:17:40.887Z,87.67
2023-04-21T04:18:44.389Z,86.62
2023-04-21T04:19:47.593Z,87.33
2023-04-21T04:20:50.990Z,87.33
2023-04-21T04:21:54.322Z,86.37
2023-04-21T04:22:57.629Z,85.97
2023-04-21T04:24:02.074Z,85.44
2023-04-21T04:25:07.062Z,85.34
2023-04-21T04:26:11.905Z,84.81
2023-04-21T04:27:16.133Z,85.33
2023-04-21T04:28:19.747Z,85.21
2023-04-21T04:29:23.461Z,84.58
2023-04-21T04:30:31.798Z,85.06
2023-04-21T04:31:36.230Z,84.37
2023-04-21T04:32:44.081Z,84.19
2023-04-21T04:33:47.599Z,84.45
2023-04-21T04:34:53.051Z,84.87
2023-04-21T04:35:57.339Z,84.69
2023-04-21T04:37:02.200Z,84.93
2023-04-21T04:38:08.305Z,85.37
2023-04-21T04:39:14.125Z,84.99
2023-04-21T04:40:17.301Z,85.06
2023-04-21T04:41:25.067Z,84.71
2023-04-21T04:42:29.019Z,84.60
2023-04-21T04:43:37.438Z,84.96
2023-04-21T04:44:42.911Z,84.19
2023-04-21T04:45:47.053Z,84.28
2023-04-21T04:46:50.337Z,84.31
2023-04-21T04:47:53.990Z,84.58
2023-04-21T04:48:56.314Z,84.66
2023-04-21T04:49:59.844Z,84.08
2023-04-21T04:51:02.163Z,83.88
2023-04-21T04:52:04.628Z,83.88
2023-04-21T04:53:07.108Z,83.55
2023-04-21T04:54:11.438Z,82.33
2023-04-21T04:55:14.021Z,82.36
2023-04-21T04:56:16.352Z,82.18
2023-04-21T04:57:19.671Z,82.44
2023-04-21T04:58:23.150Z,81.41
2023-04-21T04:59:27.904Z,81.24
2023-04-21T05:00:31.598Z,81.66
2023-04-21T05:01:35.163Z,81.59
2023-04-21T05:02:39.152Z,81.54
2023-04-21T05:03:43.007Z,81.15
2023-04-21T05:04:46.451Z,81.15
2023-04-21T05:05:49.994Z,81.49
2023-04-21T05:06:53.287Z,81.88
2023-04-21T05:07:56.691Z,81.45
2023-04-21T05:09:02.092Z,81.70
2023-04-21T05:10:05.642Z,81.87
2023-04-21T05:11:09.820Z,81.64
2023-04-21T05:12:13.109Z,81.22
2023-04-21T05:13:17.873Z,81.10
2023-04-21T05:14:20.816Z,79.79
2023-04-21T05:15:28.212Z,80.86
2023-04-21T05:16:32.483Z,80.61
2023-04-21T05:17:36.192Z,81.36
2023-04-21T05:18:39.789Z,81.33
2023-04-21T05:19:42.965Z,81.98
2023-04-21T05:20:45.739Z,81.70
2023-04-21T05:21:49.046Z,82.21
2023-04-21T05:22:51.271Z,82.59
2023-04-21T05:23:54.073Z,81.23
2023-04-21T05:24:57.794Z,81.49
2023-04-21T05:26:04.380Z,81.11
2023-04-21T05:27:07.985Z,81.22
2023-04-21T05:28:12.688Z,81.26
2023-04-21T05:29:15.903Z,79.86
2023-04-21T05:30:18.550Z,79.33
2023-04-21T05:31:22.785Z,79.11
2023-04-21T05:32:25.974Z,78.36
2023-04-21T05:33:32.597Z,77.43
2023-04-21T05:34:35.818Z,76.75
2023-04-21T05:35:39.965Z,76.25
2023-04-21T05:36:44.717Z,76.15
2023-04-21T05:37:47.456Z,75.92
2023-04-21T05:38:50.782Z,75.84
2023-04-21T05:39:53.852Z,75.00
2023-04-21T05:40:57.149Z,74.75
2023-04-21T05:42:02.185Z,74.87
2023-04-21T05:43:06.450Z,74.34
2023-04-21T05:44:09.881Z,73.87
2023-04-21T05:45:13.204Z,74.00
2023-04-21T05:46:17.781Z,73.62
2023-04-21T05:47:21.351Z,74.71
2023-04-21T05:48:24.910Z,74.36
2023-04-21T05:49:28.163Z,75.05
2023-04-21T05:50:32.766Z,75.75
2023-04-21T05:51:36.153Z,75.31
2023-04-21T05:52:39.254Z,74.72
2023-04-21T05:53:43.480Z,75.11
2023-04-21T05:54:46.892Z,75.35
2023-04-21T05:55:51.870Z,75.39
2023-04-21T05:56:54.315Z,75.77
2023-04-21T05:57:57.854Z,75.81
2023-04-21T05:59:04.139Z,75.35
2023-04-21T06:00:08.059Z,74.49
2023-04-21T06:01:14.565Z,74.75
2023-04-21T06:02:18.255Z,75.01
2023-04-21T06:03:21.326Z,74.78
2023-04-21T06:04:25.859Z,74.54
2023-04-21T06:05:29.192Z,74.03
2023-04-21T06:06:32.860Z,74.10
2023-04-21T06:07:37.336Z,73.99
2023-04-21T06:08:43.167Z,73.07
2023-04-21T06:09:48.271Z,74.12
2023-04-21T06:10:51.575Z,73.23
2023-04-21T06:11:54.280Z,73.10
2023-04-21T06:12:58.815Z,73.07
2023-04-21T06:14:02.723Z,72.93
2023-04-21T06:15:06.759Z,71.51
2023-04-21T06:16:10.398Z,71.43
2023-04-21T06:17:16.873Z,70.70
2023-04-21T06:18:21.240Z,70.72
2023-04-21T06:19:24.629Z,69.97
2023-04-21T06:20:28.960Z,69.67
2023-04-21T06:21:32.373Z,70.20
2023-04-21T06:22:35.796Z,69.96
2023-04-21T06:23:38.562Z,70.09
2023-04-21T06:24:41.780Z,70.37
2023-04-21T06:25:45.560Z,71.70
2023-04-21T06:26:48.985Z,71.20
2023-04-21T06:27:53.923Z,69.97
2023-04-21T06:28:57.625Z,69.99
2023-04-21T06:30:01.144Z,70.02
2023-04-21T06:31:07.828Z,69.96
2023-04-21T06:32:10.144Z,70.07
2023-04-21T06:33:13.957Z,69.44
2023-04-21T06:34:16.838Z,70.48
2023-04-21T06:35:21.268Z,70.13
2023-04-21T06:36:26.452Z,69.69
2023-04-21T06:37:31.420Z,69.35
2023-04-21T06:38:34.816Z,69.62
2023-04-21T06:39:38.224Z,69.76
2023-04-21T06:40:41.612Z,70.32
2023-04-21T06:41:46.083Z,69.56
2023-04-21T06:42:49.466Z,69.83
2023-04-21T06:43:53.699Z,68.78
2023-04-21T06:44:57.342Z,68.21
2023-04-21T06:46:03.534Z,68.85
2023-04-21T06:47:08.127Z,69.04
2023-04-21T06:48:12.840Z,68.70
2023-04-21T06:49:16.538Z,68.89
2023-04-21T06:50:20.887Z,68.51
2023-04-21T06:51:24.079Z,67.71
2023-04-21T06:52:29.379Z,68.07
2023-04-21T06:53:33.197Z,67.28
2023-04-21T06:54:36.485Z,67.21
2023-04-21T06:55:41.651Z,67.60
2023-04-21T06:56:46.313Z,66.24
2023-04-21T06:57:48.580Z,64.65
2023-04-21T06:58:51.858Z,64.07
2023-04-21T06:59:55.462Z,64.30
2023-04-21T07:00:58.950Z,64.23
2023-04-21T07:02:01.852Z,64.83
2023-04-21T07:03:05.942Z,64.82
2023-04-21T07:04:12.894Z,65.66
2023-04-21T07:05:16.152Z,66.56
2023-04-21T07:06:20.571Z,66.61
2023-04-21T07:07:24.196Z,67.06
2023-04-21T07:08:27.574Z,67.28
2023-04-21T07:09:31.303Z,67.90
2023-04-21T07:10:34.806Z,66.80
2023-04-21T07:11:37.164Z,66.55
2023-04-21T07:12:40.453Z,67.55
2023-04-21T07:13:43.666Z,68.38
2023-04-21T07:14:47.225Z,67.10
2023-04-21T07:15:49.713Z,67.63
2023-04-21T07:16:53.102Z,66.36
2023-04-21T07:17:55.956Z,67.19
2023-04-21T07:18:59.286Z,67.08
2023-04-21T07:20:06.798Z,66.52
2023-04-21T07:21:10.276Z,66.76
2023-04-21T07:22:14.396Z,66.87
2023-04-21T07:23:18.796Z,66.58
2023-04-21T07:24:22.241Z,66.85
2023-04-21T07:25:25.508Z,66.07
2023-04-21T07:26:29.268Z,66.73
2023-04-21T07:27:34.286Z,65.85
2023-04-21T07:28:38.143Z,66.39
2023-04-21T07:29:41.880Z,66.57
2023-04-21T07:30:46.281Z,64.77
2023-04-21T07:31:49.505Z,64.33
2023-04-21T07:32:52.884Z,61.63
2023-04-21T07:33:56.197Z,61.29
2023-04-21T07:34:58.706Z,61.04
2023-04-21T07:36:02.374Z,59.44
2023-04-21T07:37:09.302Z,59.61
2023-04-21T07:38:14.009Z,60.26
2023-04-21T07:39:17.633Z,60.59
2023-04-21T07:40:20.244Z,61.13
2023-04-21T07:41:24.656Z,59.86
2023-04-21T07:42:27.909Z,58.52
2023-04-21T07:43:33.056Z,58.63
2023-04-21T07:44:36.904Z,58.30
2023-04-21T07:45:39.546Z,57.87
2023-04-21T07:46:43.832Z,58.48
2023-04-21T07:47:48.310Z,57.75
2023-04-21T07:48:53.456Z,56.49
2023-04-21T07:49:56.696Z,56.41
2023-04-21T07:51:01.841Z,56.03
2023-04-21T07:52:05.283Z,56.52
2023-04-21T07:53:08.792Z,58.38
2023-04-21T07:54:13.573Z,59.90
2023-04-21T07:55:18.616Z,60.64
2023-04-21T07:56:22.332Z,60.83
2023-04-21T07:57:26.120Z,59.84
2023-04-21T07:58:29.434Z,62.04
2023-04-21T07:59:39.861Z,62.86
2023-04-21T08:00:45.045Z,62.73
2023-04-21T08:01:48.476Z,62.78
2023-04-21T08:02:52.197Z,63.61
2023-04-21T08:03:57.571Z,63.60
2023-04-21T08:05:03.412Z,64.29
2023-04-21T08:06:08.834Z,64.55
2023-04-21T08:07:13.958Z,63.85
2023-04-21T08:08:20.313Z,65.46
2023-04-21T08:09:23.921Z,64.70
2023-04-21T08:10:28.549Z,64.75
2023-04-21T08:11:31.989Z,65.08
2023-04-21T08:12:34.297Z,66.38
2023-04-21T08:13:37.732Z,66.62
2023-04-21T08:14:40.288Z,67.26
2023-04-21T08:15:44.446Z,67.16
2023-04-21T08:16:47.817Z,67.52
2023-04-21T08:17:52.298Z,66.98
2023-04-21T08:18:54.946Z,68.19
2023-04-21T08:19:59.596Z,68.18
2023-04-21T08:21:04.594Z,67.68
2023-04-21T08:22:08.280Z,68.41
2023-04-21T08:23:11.483Z,69.38
2023-04-21T08:24:14.584Z,69.33
2023-04-21T08:25:18.273Z,68.10
2023-04-21T08:26:27.074Z,68.46
2023-04-21T08:27:30.610Z,67.79
2023-04-21T08:28:33.393Z,68.56
2023-04-21T08:29:36.600Z,68.19
2023-04-21T08:30:40.079Z,67.02
2023-04-21T08:31:43.864Z,66.93
2023-04-21T08:32:47.339Z,65.83
2023-04-21T08:34:01.265Z,65.22
2023-04-21T08:34:56.852Z,66.32
2023-04-21T08:36:07.354Z,66.54
2023-04-21T08:37:06.660Z,68.12
2023-04-21T08:38:09.029Z,68.11
2023-04-21T08:39:12.616Z,68.50
2023-04-21T08:40:17.166Z,68.43
2023-04-21T08:41:21.137Z,68.10
2023-04-21T08:42:25.409Z,68.00
2023-04-21T08:43:30.609Z,67.82
2023-04-21T08:44:36.818Z,68.30
2023-04-21T08:45:40.867Z,67.95
2023-04-21T08:46:44.966Z,67.88
2023-04-21T08:47:49.030Z,67.80
2023-04-21T08:48:54.964Z,68.08
2023-04-21T08:49:57.791Z,69.15
2023-04-21T08:51:03.600Z,68.49
2023-04-21T08:52:08.786Z,68.15
2023-04-21T08:53:12.169Z,68.22
2023-04-21T08:54:17.770Z,67.64
2023-04-21T08:55:20.839Z,67.50
2023-04-21T08:56:28.121Z,67.26
2023-04-21T08:57:31.687Z,66.40
2023-04-21T08:58:34.081Z,66.38
2023-04-21T08:59:38.910Z,64.25
2023-04-21T09:00:42.869Z,65.24
2023-04-21T09:02:05.843Z,66.12
2023-04-21T09:03:19.387Z,65.74
2023-04-21T09:04:19.743Z,66.83
2023-04-21T09:05:24.913Z,67.91
2023-04-21T09:06:30.605Z,66.66
2023-04-21T09:07:39.229Z,67.18
2023-04-21T09:08:43.656Z,68.17
2023-04-21T09:09:52.935Z,67.07
2023-04-21T09:10:57.906Z,67.59
2023-04-21T09:12:01.577Z,66.35
2023-04-21T09:13:08.845Z,65.01
2023-04-21T09:14:12.280Z,65.63
2023-04-21T09:15:17.534Z,65.92
2023-04-21T09:16:22.229Z,66.19
2023-04-21T09:17:30.634Z,66.74
2023-04-21T09:18:34.818Z,66.33
2023-04-21T09:19:42.296Z,66.28
2023-04-21T09:20:47.854Z,66.11
2023-04-21T09:21:53.935Z,66.67
2023-04-21T09:22:57.838Z,66.84
2023-04-21T09:24:04.191Z,67.67
2023-04-21T09:25:08.312Z,69.01
2023-04-21T09:26:13.604Z,68.14
2023-04-21T09:27:17.497Z,68.20
2023-04-21T09:28:19.935Z,68.56
2023-04-21T09:29:25.454Z,68.68
2023-04-21T09:30:29.155Z,69.23
2023-04-21T09:31:35.235Z,69.86
2023-04-21T09:32:39.586Z,69.70
2023-04-21T09:33:57.961Z,71.05
2023-04-21T09:34:54.984Z,71.12
2023-04-21T09:36:00.364Z,70.87
2023-04-21T09:37:05.265Z,71.10
2023-04-21T09:38:12.191Z,71.95
2023-04-21T09:40:21.071Z,73.82
2023-04-21T09:41:25.690Z,73.20
2023-04-21T09:42:30.386Z,73.31
2023-04-21T09:43:33.986Z,74.42
2023-04-21T09:44:47.521Z,74.82
2023-04-21T09:45:45.085Z,75.97
2023-04-21T09:46:48.740Z,76.63
2023-04-21T09:47:54.723Z,76.42
2023-04-21T09:49:00.123Z,77.43
2023-04-21T09:50:07.108Z,78.21
2023-04-21T09:51:28.796Z,78.61
2023-04-21T09:52:20.802Z,80.18
2023-04-21T09:53:26.736Z,82.22
2023-04-21T09:54:32.986Z,85.11
2023-04-21T09:55:38.862Z,87.75
2023-04-21T09:56:43.287Z,89.31
2023-04-21T09:57:50.780Z,88.99
2023-04-21T09:58:54.690Z,89.21
2023-04-21T10:00:07.713Z,90.20
2023-04-21T10:01:13.349Z,88.49
2023-04-21T10:02:18.483Z,88.78
2023-04-21T10:03:24.762Z,85.96
2023-04-21T10:04:31.244Z,85.65
2023-04-21T10:05:35.232Z,85.03
2023-04-21T10:06:39.696Z,84.79
2023-04-21T10:07:44.676Z,81.96
2023-04-21T10:08:54.507Z,82.74
2023-04-21T10:10:01.991Z,82.28
2023-04-21T10:11:08.872Z,84.29
2023-04-21T10:12:13.983Z,84.08
2023-04-21T10:13:19.921Z,83.85
2023-04-21T10:14:24.307Z,81.98
2023-04-21T10:15:35.408Z,80.01
2023-04-21T10:16:39.164Z,80.35
2023-04-21T10:17:43.948Z,79.55
2023-04-21T10:18:47.513Z,79.20
2023-04-21T10:19:52.002Z,80.23
2023-04-21T10:21:02.903Z,79.81
2023-04-21T10:22:10.468Z,81.17
2023-04-21T10:23:16.978Z,81.27
2023-04-21T10:24:20.504Z,80.68
2023-04-21T10:25:24.430Z,81.11
2023-04-21T10:26:30.159Z,80.24
2023-04-21T10:27:36.665Z,79.92
2023-04-21T10:28:40.570Z,78.67
2023-04-21T10:29:55.417Z,78.58
2023-04-21T10:30:48.417Z,77.68
2023-04-21T10:31:52.817Z,78.18
2023-04-21T10:33:03.153Z,78.86
2023-04-21T10:34:14.508Z,75.20
2023-04-21T10:35:24.685Z,74.06
2023-04-21T10:36:29.301Z,75.42
2023-04-21T10:37:32.509Z,71.78
2023-04-21T10:38:36.655Z,71.72
2023-04-21T10:39:43.406Z,72.40
2023-04-21T10:40:45.863Z,73.01
2023-04-21T10:41:50.308Z,72.39
2023-04-21T10:42:55.377Z,71.15
2023-04-21T10:44:03.480Z,71.34
2023-04-21T10:45:08.238Z,71.90
2023-04-21T10:46:30.461Z,71.07
2023-04-21T10:47:45.165Z,70.48
2023-04-21T10:48:54.269Z,71.47
2023-04-21T10:49:59.871Z,73.06
2023-04-21T10:51:05.871Z,73.21
2023-04-21T10:52:10.724Z,74.59
2023-04-21T10:53:14.031Z,75.68
2023-04-21T10:54:18.489Z,78.21
2023-04-21T10:55:22.908Z,78.84
2023-04-21T10:56:26.950Z,79.67
2023-04-21T10:57:34.737Z,79.15
2023-04-21T10:58:40.110Z,80.56
2023-04-21T10:59:44.159Z,81.98
2023-04-21T11:00:47.791Z,84.55
2023-04-21T11:01:51.587Z,82.05
2023-04-21T11:03:05.144Z,81.83
2023-04-21T11:04:11.627Z,80.17
2023-04-21T11:05:15.684Z,81.52
2023-04-21T11:06:19.172Z,82.55
2023-04-21T11:07:23.932Z,81.00
2023-04-21T11:08:27.346Z,80.68
2023-04-21T11:09:33.283Z,78.52
2023-04-21T11:10:47.204Z,78.50
2023-04-21T11:11:51.422Z,77.36
2023-04-21T11:12:58.495Z,75.37
2023-04-21T11:14:02.191Z,73.34
2023-04-21T11:15:07.835Z,72.83
2023-04-21T11:16:12.916Z,71.87
2023-04-21T11:17:16.745Z,71.75
2023-04-21T11:18:21.762Z,70.88
2023-04-21T11:19:26.624Z,69.66
2023-04-21T11:20:29.905Z,68.68
2023-04-21T11:21:33.565Z,68.38
2023-04-21T11:22:38.378Z,68.32
2023-04-21T11:23:42.449Z,66.03
2023-04-21T11:24:46.865Z,66.00
2023-04-21T11:25:50.839Z,65.35
2023-04-21T11:26:57.681Z,66.46
2023-04-21T11:28:02.079Z,67.42
2023-04-21T11:29:09.100Z,65.78
2023-04-21T11:30:13.420Z,65.51
2023-04-21T11:31:18.532Z,65.37
2023-04-21T11:32:21.876Z,65.56
2023-04-21T11:33:25.426Z,64.94
2023-04-21T11:34:32.379Z,64.83
2023-04-21T11:35:38.401Z,64.11
2023-04-21T11:36:44.214Z,63.32
2023-04-21T11:37:50.847Z,63.90
2023-04-21T11:38:54.455Z,64.40
2023-04-21T11:39:58.171Z,63.48
2023-04-21T11:41:04.364Z,62.44
2023-04-21T11:42:07.920Z,62.77
2023-04-21T11:43:11.818Z,63.91
2023-04-21T11:44:15.626Z,62.73
2023-04-21T11:45:22.222Z,62.79
2023-04-21T11:46:46.928Z,61.48
2023-04-21T11:47:49.980Z,60.37
2023-04-21T11:48:59.841Z,61.03
2023-04-21T11:50:04.180Z,60.62
2023-04-21T11:51:09.720Z,60.16
2023-04-21T11:52:16.000Z,61.49
2023-04-21T11:53:21.864Z,60.98
2023-04-21T11:54:28.032Z,59.95
2023-04-21T11:55:31.526Z,59.22
2023-04-21T11:56:40.986Z,58.10
2023-04-21T11:57:43.565Z,59.01
2023-04-21T11:58:46.633Z,59.53
2023-04-21T11:59:50.141Z,59.06
2023-04-21T12:00:52.485Z,59.23
2023-04-21T12:01:55.931Z,58.60
2023-04-21T12:03:00.310Z,59.13
2023-04-21T12:04:04.497Z,58.90
2023-04-21T12:05:10.110Z,59.05
2023-04-21T12:06:15.839Z,59.48
2023-04-21T12:07:23.343Z,60.03
2023-04-21T12:08:28.520Z,59.28
2023-04-21T12:09:32.012Z,58.46
2023-04-21T12:10:35.642Z,57.63
2023-04-21T12:11:39.137Z,57.87
2023-04-21T12:12:42.259Z,57.19
2023-04-21T12:13:45.377Z,58.22
2023-04-21T12:14:49.227Z,58.65
2023-04-21T12:15:52.549Z,58.60
2023-04-21T12:16:57.817Z,58.70
2023-04-21T12:18:01.337Z,59.09
2023-04-21T12:19:06.075Z,58.49
2023-04-21T12:20:10.688Z,59.35
2023-04-21T12:21:15.590Z,59.95
2023-04-21T12:22:23.820Z,59.42
2023-04-21T12:23:27.628Z,59.18
2023-04-21T12:24:30.841Z,58.15
2023-04-21T12:25:34.517Z,57.67
2023-04-21T12:26:38.595Z,57.99
2023-04-21T12:27:47.896Z,57.27
2023-04-21T12:28:51.618Z,57.13
2023-04-21T12:29:56.602Z,56.93
2023-04-21T12:31:00.095Z,56.49
2023-04-21T12:32:03.745Z,57.01
2023-04-21T12:33:06.882Z,56.91
2023-04-21T12:34:10.798Z,57.00
2023-04-21T12:35:14.320Z,56.67
2023-04-21T12:36:17.201Z,57.10
2023-04-21T12:37:19.752Z,57.70
2023-04-21T12:38:23.474Z,57.39
2023-04-21T12:39:26.988Z,57.17
2023-04-21T12:40:29.741Z,56.91
2023-04-21T12:41:34.727Z,56.94
2023-04-21T12:42:38.945Z,57.49
2023-04-21T12:43:43.180Z,56.96
2023-04-21T12:44:46.643Z,57.16
2023-04-21T12:45:49.654Z,57.72
2023-04-21T12:46:53.242Z,57.05
2023-04-21T12:47:56.776Z,56.83
2023-04-21T12:48:59.880Z,57.15
2023-04-21T12:50:07.036Z,56.95
2023-04-21T12:51:11.802Z,57.94
2023-04-21T12:52:14.164Z,58.69
2023-04-21T12:53:17.475Z,58.46
2023-04-21T12:54:20.747Z,58.13
2023-04-21T12:55:24.066Z,58.90
2023-04-21T12:56:27.757Z,57.69
2023-04-21T12:57:32.400Z,57.27
2023-04-21T12:58:36.457Z,57.68
2023-04-21T12:59:39.839Z,56.81
2023-04-21T13:00:43.916Z,57.06
2023-04-21T13:01:47.597Z,56.46
2023-04-21T13:02:51.190Z,56.67
2023-04-21T13:03:54.677Z,56.01
2023-04-21T13:05:00.074Z,56.21
2023-04-21T13:06:02.528Z,56.76
2023-04-21T13:07:05.304Z,56.59
2023-04-21T13:08:09.027Z,55.36
2023-04-21T13:09:12.537Z,54.76
2023-04-21T13:10:15.900Z,54.60
2023-04-21T13:11:18.087Z,54.42
2023-04-21T13:12:21.585Z,54.89
2023-04-21T13:13:25.087Z,55.47
2023-04-21T13:14:28.165Z,54.65
2023-04-21T13:15:31.803Z,54.61
2023-04-21T13:16:37.141Z,54.77
2023-04-21T13:17:41.909Z,55.62
2023-04-21T13:18:46.575Z,54.90
2023-04-21T13:19:52.120Z,55.02
2023-04-21T13:20:55.569Z,55.23
2023-04-21T13:21:59.914Z,55.71
2023-04-21T13:23:03.632Z,56.87
2023-04-21T13:24:07.038Z,57.04
2023-04-21T13:25:10.317Z,57.20
2023-04-21T13:26:13.748Z,56.69
2023-04-21T13:27:16.198Z,56.18
2023-04-21T13:28:21.435Z,57.46
2023-04-21T13:29:26.321Z,56.68
2023-04-21T13:30:29.838Z,56.28
2023-04-21T13:31:33.739Z,56.30
2023-04-21T13:32:37.782Z,56.22
2023-04-21T13:33:42.873Z,55.90
2023-04-21T13:34:45.425Z,56.06
2023-04-21T13:35:49.552Z,55.12
2023-04-21T13:36:55.381Z,55.13
2023-04-21T13:37:58.897Z,55.37
2023-04-21T13:39:02.475Z,54.76
2023-04-21T13:40:08.207Z,55.25
2023-04-21T13:41:12.478Z,55.48
2023-04-21T13:42:18.918Z,55.06
2023-04-21T13:43:23.193Z,55.81
2023-04-21T13:44:30.455Z,55.25
2023-04-21T13:45:33.116Z,55.51
2023-04-21T13:46:36.878Z,55.49
2023-04-21T13:47:41.306Z,55.45
2023-04-21T13:48:48.648Z,55.64
2023-04-21T13:49:52.142Z,56.52
2023-04-21T13:50:55.654Z,56.60
2023-04-21T13:51:58.896Z,56.73